Time;durP1;ratioP1;P1;durP2;ratioP2;P2;SDS_P1;SDS_P2;PMS_P1;PMS_P2;Temp;Humidity;BMP_temperature;BMP_pressure;BME280_temperature;BME280_humidity;BME280_pressure;Samples;Min_cycle;Max_cycle;Signal;HPM_P1;HPM_P2
2024/04/05 00:00:47;;;;;;;1.20;1.10;;;;;;;20.09;53.98;97500.94;5003494;28;21022;-28
2024/04/05 00:03:13;;;;;;;1.00;1.00;;;;;;;20.10;53.92;97497.56;5015928;28;20295;-28
2024/04/05 00:05:38;;;;;;;1.30;1.20;;;;;;;20.10;53.81;97500.09;5015970;28;20249;-26
2024/04/05 00:08:04;;;;;;;1.27;1.17;;;;;;;20.03;53.75;97482.88;5006892;28;20203;-27
2024/04/05 00:10:30;;;;;;;1.00;1.00;;;;;;;20.11;53.66;97486.56;5008548;28;20268;-27
2024/04/05 00:12:56;;;;;;;1.30;1.20;;;;;;;20.10;53.83;97472.03;5008243;28;20277;-29
2024/04/05 00:15:22;;;;;;;1.20;1.10;;;;;;;20.12;53.81;97479.75;5011042;28;20207;-28
2024/04/05 00:17:48;;;;;;;1.30;1.20;;;;;;;20.10;53.85;97482.25;5001086;28;20203;-27
2024/04/05 00:20:13;;;;;;;1.40;1.30;;;;;;;20.08;53.95;97495.78;5008562;28;20218;-29
2024/04/05 00:22:39;;;;;;;1.93;1.30;;;;;;;20.06;53.84;97505.03;5010009;28;20221;-26
2024/04/05 00:25:05;;;;;;;1.30;1.20;;;;;;;20.06;53.76;97499.94;5010118;28;20238;-28
2024/04/05 00:27:31;;;;;;;1.10;1.10;;;;;;;20.05;53.80;97491.44;5003776;28;20578;-27
2024/04/05 00:29:56;;;;;;;1.30;1.20;;;;;;;20.06;53.80;97503.38;5003403;28;20274;-27
2024/04/05 00:32:22;;;;;;;1.20;1.10;;;;;;;20.07;53.94;97504.25;5017167;28;20209;-34
2024/04/05 00:34:47;;;;;;;1.20;1.10;;;;;;;20.07;53.84;97496.59;5004687;28;20277;-25
2024/04/05 00:37:13;;;;;;;1.30;1.20;;;;;;;20.08;53.84;97501.75;5004798;28;20658;-26
2024/04/05 00:39:39;;;;;;;1.30;1.20;;;;;;;20.08;53.90;97500.88;5005690;28;20578;-28
2024/04/05 00:42:05;;;;;;;1.30;1.20;;;;;;;20.08;53.81;97496.66;5007882;28;20283;-26
2024/04/05 00:44:30;;;;;;;1.30;1.20;;;;;;;20.11;53.88;97500.97;5005112;28;20226;-30
2024/04/05 00:46:56;;;;;;;0.90;0.90;;;;;;;20.11;53.99;97499.31;5006431;28;20203;-26
2024/04/05 00:49:23;;;;;;;1.20;1.10;;;;;;;20.11;53.93;97496.75;4993937;28;20210;-25
2024/04/05 00:51:48;;;;;;;1.20;1.13;;;;;;;20.12;53.75;97495.06;4992023;28;20253;-27
2024/04/05 00:54:14;;;;;;;1.10;1.10;;;;;;;20.10;53.76;97495.00;4992501;28;20203;-27
2024/04/05 00:56:40;;;;;;;1.10;1.10;;;;;;;20.04;54.17;97492.25;5005841;28;20198;-27
2024/04/05 00:59:05;;;;;;;1.40;1.30;;;;;;;20.06;53.74;97500.81;4984671;28;20337;-28
2024/04/05 01:01:31;;;;;;;0.90;0.90;;;;;;;20.06;53.97;97497.41;5008432;28;20253;-28
2024/04/05 01:03:57;;;;;;;1.40;1.30;;;;;;;19.98;53.85;97479.28;5004012;28;20229;-28
2024/04/05 01:06:22;;;;;;;1.13;1.13;;;;;;;20.06;53.78;97500.81;4997387;28;20314;-26
2024/04/05 01:08:48;;;;;;;1.20;1.10;;;;;;;20.06;53.76;97495.72;5006018;28;20294;-27
2024/04/05 01:11:13;;;;;;;1.10;1.10;;;;;;;20.07;53.99;97487.25;4987089;28;20254;-28
2024/04/05 01:13:39;;;;;;;1.63;1.30;;;;;;;20.09;53.90;97489.84;5003247;28;20285;-26
2024/04/05 01:16:06;;;;;;;0.90;0.90;;;;;;;20.09;54.03;97493.28;5007572;28;20206;-26
2024/04/05 01:18:34;;;;;;;1.00;1.00;;;;;;;20.10;53.91;97489.91;5015104;28;20213;-27
2024/04/05 01:21:01;;;;;;;1.40;1.20;;;;;;;20.09;53.86;97493.28;4985418;28;20234;-28
2024/04/05 01:23:28;;;;;;;1.10;1.10;;;;;;;20.11;53.82;97488.22;5007909;28;20248;-27
2024/04/05 01:25:53;;;;;;;1.50;1.30;;;;;;;20.11;54.00;97495.88;5007218;28;20219;-26
2024/04/05 01:28:19;;;;;;;1.30;1.20;;;;;;;20.11;53.88;97493.31;5006902;28;20309;-26
2024/04/05 01:30:45;;;;;;;1.20;1.20;;;;;;;20.08;53.88;97490.66;5009519;28;20305;-27
2024/04/05 01:33:10;;;;;;;1.00;1.00;;;;;;;19.99;53.85;97484.44;5002575;28;20693;-26
2024/04/05 01:35:37;;;;;;;1.20;1.10;;;;;;;20.05;53.79;97488.91;5013619;28;20398;-26
2024/04/05 01:38:03;;;;;;;1.33;1.23;;;;;;;19.97;53.91;97475.00;5013295;28;20237;-27
2024/04/05 01:40:29;;;;;;;1.10;1.10;;;;;;;20.05;53.80;97482.91;5011334;28;20329;-26
2024/04/05 01:42:54;;;;;;;1.10;1.10;;;;;;;20.05;53.91;97480.38;5002084;28;20207;-27
2024/04/05 01:45:20;;;;;;;1.23;1.13;;;;;;;20.05;54.02;97478.69;5002889;28;20661;-26
2024/04/05 01:47:46;;;;;;;1.17;1.17;;;;;;;20.06;53.91;97477.88;5007796;28;20206;-28
2024/04/05 01:50:15;;;;;;;1.00;1.00;;;;;;;20.07;53.80;97483.84;5000798;28;20438;-28
2024/04/05 01:52:41;;;;;;;1.10;1.00;;;;;;;20.06;53.96;97490.63;5003175;28;20206;-28
2024/04/05 01:55:07;;;;;;;1.30;1.20;;;;;;;20.07;53.84;97499.16;5001634;28;20274;-27
2024/04/05 01:57:36;;;;;;;0.90;0.90;;;;;;;20.07;53.94;97494.06;5006231;28;20210;-27
2024/04/05 02:00:01;;;;;;;1.10;1.10;;;;;;;20.08;53.90;97493.22;4998690;28;20234;-27
2024/04/05 02:02:27;;;;;;;1.30;1.20;;;;;;;20.08;53.90;97493.22;5006241;28;20260;-29
2024/04/05 02:04:53;;;;;;;1.00;1.00;;;;;;;20.07;53.79;97487.25;5003123;28;20217;-28
2024/04/05 02:07:22;;;;;;;1.20;1.10;;;;;;;20.04;53.85;97491.41;5004260;28;20290;-27
2024/04/05 02:09:48;;;;;;;1.10;1.10;;;;;;;20.03;53.90;97487.97;5009271;28;20217;-26
2024/04/05 02:12:15;;;;;;;0.90;0.90;;;;;;;20.03;53.95;97495.63;5003802;28;20203;-26
2024/04/05 02:14:40;;;;;;;1.33;1.23;;;;;;;20.04;53.98;97492.25;5000294;28;20548;-30
2024/04/05 02:17:06;;;;;;;1.30;1.20;;;;;;;20.03;53.77;97487.97;5010663;28;20205;-25
2024/04/05 02:19:32;;;;;;;1.30;1.20;;;;;;;20.05;53.80;97490.56;5011321;28;20272;-27
2024/04/05 02:21:58;;;;;;;1.00;1.00;;;;;;;20.05;53.77;97485.47;5004650;28;20249;-26
2024/04/05 02:24:24;;;;;;;1.10;1.10;;;;;;;20.05;54.08;97488.91;5003383;28;20207;-26
2024/04/05 02:26:50;;;;;;;1.17;1.10;;;;;;;20.05;54.00;97476.13;5008575;28;20198;-26
2024/04/05 02:29:16;;;;;;;0.93;0.93;;;;;;;20.06;53.85;97477.88;5004122;28;20207;-28
2024/04/05 02:31:42;;;;;;;1.20;1.10;;;;;;;20.08;54.03;97477.91;5002924;28;20393;-27
2024/04/05 02:34:08;;;;;;;1.13;1.03;;;;;;;20.08;53.74;97480.47;5003978;28;20670;-26
2024/04/05 02:36:33;;;;;;;1.13;1.07;;;;;;;20.07;53.88;97482.13;4995727;28;20282;-28
2024/04/05 02:38:59;;;;;;;1.10;1.10;;;;;;;20.07;53.95;97482.13;5014375;28;20281;-32
2024/04/05 02:41:24;;;;;;;1.40;1.30;;;;;;;20.05;54.03;97478.69;5005494;28;20222;-27
2024/04/05 02:43:50;;;;;;;1.03;1.03;;;;;;;20.03;53.88;97477.75;5006660;28;20641;-27
2024/04/05 02:46:16;;;;;;;1.37;1.20;;;;;;;20.02;53.78;97479.44;5009248;28;20218;-30
2024/04/05 02:48:41;;;;;;;1.40;1.30;;;;;;;20.02;54.01;97484.53;5001570;28;20202;-27
2024/04/05 02:51:07;;;;;;;1.00;1.00;;;;;;;20.04;53.89;97483.75;4998007;28;20227;-27
2024/04/05 02:53:32;;;;;;;1.20;1.10;;;;;;;20.04;53.83;97484.59;5011194;28;20206;-27
2024/04/05 02:55:58;;;;;;;1.20;1.10;;;;;;;20.04;54.00;97479.47;5010317;28;20210;-28
2024/04/05 02:58:24;;;;;;;1.40;1.10;;;;;;;20.05;53.87;97488.91;4996370;28;20258;-27
2024/04/05 03:00:54;;;;;;;1.13;1.13;;;;;;;20.06;53.85;97487.19;5007728;28;20254;-27
2024/04/05 03:03:19;;;;;;;1.33;1.23;;;;;;;20.07;53.69;97489.78;4993729;28;20215;-27
2024/04/05 03:05:45;;;;;;;0.93;0.93;;;;;;;20.07;53.66;97483.84;5007613;28;20229;-27
2024/04/05 03:08:11;;;;;;;1.93;1.30;;;;;;;20.07;54.01;97477.03;4992593;28;20260;-28
2024/04/05 03:10:36;;;;;;;1.43;1.10;;;;;;;20.09;53.85;97484.75;5007196;28;20222;-31
2024/04/05 03:13:02;;;;;;;1.47;1.20;;;;;;;20.09;53.84;97479.63;4998982;28;20214;-29
2024/04/05 03:15:28;;;;;;;1.40;1.30;;;;;;;20.06;53.94;97475.31;5002625;28;20209;-27
2024/04/05 03:17:53;;;;;;;0.90;0.90;;;;;;;20.05;53.93;97472.72;5008458;28;20685;-28
2024/04/05 03:20:19;;;;;;;1.10;1.10;;;;;;;20.04;53.90;97484.59;4999735;28;20233;-30
2024/04/05 03:22:44;;;;;;;1.10;1.10;;;;;;;20.03;53.83;97477.75;4998369;28;20206;-27
2024/04/05 03:25:10;;;;;;;1.07;1.07;;;;;;;20.05;53.81;97482.91;5006347;28;20709;-28
2024/04/05 03:27:36;;;;;;;1.30;1.20;;;;;;;20.02;53.98;97478.59;5001376;28;20214;-28
2024/04/05 03:30:04;;;;;;;1.00;1.00;;;;;;;20.05;54.04;97488.00;5009296;28;20226;-28
2024/04/05 03:32:30;;;;;;;1.20;1.10;;;;;;;20.06;53.92;97485.53;5013434;28;20677;-28
2024/04/05 03:34:56;;;;;;;1.30;1.20;;;;;;;20.01;53.80;97484.47;5019939;28;20277;-29
2024/04/05 03:37:22;;;;;;;0.93;0.93;;;;;;;20.07;53.76;97492.34;5008580;28;20208;-27
2024/04/05 03:39:54;;;;;;;1.60;1.10;;;;;;;20.06;53.78;97490.63;5010993;28;20205;-28
2024/04/05 03:42:20;;;;;;;1.07;1.07;;;;;;;20.07;53.94;97487.25;4995454;28;20210;-26
2024/04/05 03:44:46;;;;;;;1.30;1.20;;;;;;;20.08;53.76;97485.56;5008918;28;20222;-27
2024/04/05 03:47:12;;;;;;;1.10;1.10;;;;;;;20.08;53.88;97488.13;5009921;28;20292;-27
2024/04/05 03:49:38;;;;;;;1.00;1.00;;;;;;;20.07;53.84;97481.28;5013124;28;20294;-29
2024/04/05 03:52:04;;;;;;;1.00;1.00;;;;;;;20.04;53.97;97484.59;5004983;28;20613;-26
2024/04/05 03:54:30;;;;;;;1.00;1.00;;;;;;;20.03;54.05;97480.31;5008792;28;20222;-28
2024/04/05 03:56:55;;;;;;;1.10;1.10;;;;;;;20.02;53.81;97478.59;5004989;28;20680;-27
2024/04/05 03:59:21;;;;;;;0.90;0.90;;;;;;;20.03;53.85;97482.88;5000787;28;20234;-27
2024/04/05 04:01:50;;;;;;;1.37;1.27;;;;;;;20.04;53.96;97486.28;5004769;28;20241;-26
2024/04/05 04:04:17;;;;;;;1.00;1.00;;;;;;;20.04;53.85;97484.59;5011347;28;20215;-27
2024/04/05 04:06:43;;;;;;;0.90;0.90;;;;;;;20.05;53.80;97486.34;4999411;28;20287;-26
2024/04/05 04:09:09;;;;;;;1.30;1.20;;;;;;;20.05;53.81;97486.34;5016820;28;20202;-26
2024/04/05 04:11:36;;;;;;;1.20;1.10;;;;;;;20.06;54.01;97484.63;5009666;28;20254;-31
2024/04/05 04:14:01;;;;;;;1.10;1.10;;;;;;;20.06;54.01;97488.06;5009354;28;20454;-33
2024/04/05 04:16:27;;;;;;;1.00;1.00;;;;;;;20.06;54.01;97482.09;5015542;28;20849;-27
2024/04/05 04:18:52;;;;;;;1.80;1.17;;;;;;;20.06;53.84;97488.06;5008865;28;20198;-26
2024/04/05 04:21:18;;;;;;;1.10;1.10;;;;;;;20.07;53.78;97482.13;5005053;28;20226;-29
2024/04/05 04:23:44;;;;;;;1.30;1.20;;;;;;;20.07;53.95;97483.84;5010411;28;20282;-28
2024/04/05 04:26:10;;;;;;;1.10;1.10;;;;;;;20.05;53.87;97481.25;5012795;28;20751;-29
2024/04/05 04:28:35;;;;;;;1.00;1.00;;;;;;;20.04;53.83;97481.19;5013062;28;20668;-28
2024/04/05 04:31:16;;;;;;;1.40;1.30;;;;;;;20.04;53.77;97479.47;5006844;28;20334;-27
2024/04/05 04:33:42;;;;;;;0.90;0.90;;;;;;;20.04;53.94;97476.09;5011689;28;20362;-27
2024/04/05 04:36:07;;;;;;;1.20;1.10;;;;;;;20.04;53.95;97474.38;5007682;28;20198;-28
2024/04/05 04:38:33;;;;;;;1.00;1.00;;;;;;;19.99;54.41;97474.22;5010942;28;20674;-27
2024/04/05 04:40:59;;;;;;;1.10;1.10;;;;;;;20.06;54.17;97487.19;4999192;28;20231;-27
2024/04/05 04:43:24;;;;;;;2.20;1.27;;;;;;;20.06;53.78;97476.97;5004595;28;20209;-30
2024/04/05 04:45:50;;;;;;;0.90;0.90;;;;;;;20.06;53.92;97484.63;5015403;28;20222;-26
2024/04/05 04:48:16;;;;;;;1.23;1.20;;;;;;;20.06;53.86;97488.06;5016198;28;20210;-28
2024/04/05 04:50:41;;;;;;;1.10;1.10;;;;;;;20.06;54.01;97480.41;5012062;28;20795;-26
2024/04/05 04:53:07;;;;;;;1.23;1.13;;;;;;;20.07;53.87;97486.41;5016712;28;20261;-30
2024/04/05 04:55:32;;;;;;;1.10;1.00;;;;;;;20.08;53.84;97475.38;5015134;28;20815;-28
2024/04/05 04:57:58;;;;;;;1.53;1.20;;;;;;;20.09;53.94;97488.16;5016399;28;20321;-27
2024/04/05 05:00:23;;;;;;;1.23;1.13;;;;;;;20.05;53.96;97483.78;5009785;28;20227;-27
2024/04/05 05:02:49;;;;;;;1.27;1.17;;;;;;;20.02;54.04;97484.53;5013192;28;20195;-27
2024/04/05 05:05:15;;;;;;;1.50;1.20;;;;;;;20.04;54.21;97488.84;5013370;28;20477;-26
2024/04/05 05:07:40;;;;;;;1.40;1.30;;;;;;;20.03;54.25;97493.06;5002234;28;20262;-27
2024/04/05 05:10:09;;;;;;;1.53;1.40;;;;;;;20.03;54.14;97485.41;5011801;28;20230;-28
2024/04/05 05:12:36;;;;;;;1.40;1.30;;;;;;;20.05;54.08;97485.47;5012261;28;20202;-27
2024/04/05 05:15:01;;;;;;;2.17;1.57;;;;;;;20.06;54.18;97477.88;5021295;28;20210;-27
2024/04/05 05:17:27;;;;;;;3.50;1.90;;;;;;;20.08;54.10;97477.91;5010086;28;20209;-27
2024/04/05 05:19:52;;;;;;;2.70;1.77;;;;;;;20.09;53.94;97477.97;5010512;28;20207;-28
2024/04/05 05:22:18;;;;;;;1.63;1.37;;;;;;;20.07;54.04;97482.13;5000132;28;20206;-30
2024/04/05 05:24:44;;;;;;;1.50;1.40;;;;;;;20.07;53.99;97487.25;5003136;28;20234;-26
2024/04/05 05:27:09;;;;;;;1.93;1.70;;;;;;;20.10;53.94;97483.94;5015818;28;20214;-26
2024/04/05 05:29:35;;;;;;;1.63;1.53;;;;;;;20.11;53.65;97485.69;5014837;28;20209;-27
2024/04/05 05:32:01;;;;;;;1.93;1.63;;;;;;;20.10;54.06;97497.56;5014012;28;20226;-28
2024/04/05 05:34:26;;;;;;;1.40;1.30;;;;;;;20.07;54.01;97491.50;5015638;28;20289;-26
2024/04/05 05:36:52;;;;;;;5.03;1.73;;;;;;;20.04;54.23;97486.28;5007055;28;20210;-27
2024/04/05 05:39:19;;;;;;;2.50;1.60;;;;;;;20.03;54.39;97493.06;5015251;28;20198;-27
2024/04/05 05:41:45;;;;;;;2.87;2.10;;;;;;;20.02;54.63;97495.56;5011391;28;20218;-29
2024/04/05 05:44:11;;;;;;;2.97;1.80;;;;;;;20.02;54.75;97500.66;5012397;28;20712;-26
2024/04/05 05:46:36;;;;;;;3.73;2.00;;;;;;;20.06;54.70;97497.41;5009579;28;20321;-26
2024/04/05 05:49:02;;;;;;;7.60;2.20;;;;;;;20.11;54.68;97503.53;5011909;28;20206;-26
2024/04/05 05:51:28;;;;;;;2.87;2.13;;;;;;;20.13;54.51;97501.94;5004081;28;20223;-26
2024/04/05 05:53:53;;;;;;;4.27;2.40;;;;;;;20.17;54.58;97508.88;5008700;28;20206;-27
2024/04/05 05:56:20;;;;;;;2.97;1.90;;;;;;;20.17;54.42;97506.34;5014336;28;20833;-26
2024/04/05 05:58:47;;;;;;;6.90;2.50;;;;;;;20.16;54.33;97508.00;5014850;28;20221;-27
2024/04/05 06:01:12;;;;;;;4.40;2.07;;;;;;;20.15;54.31;97510.50;5012590;28;20717;-29
2024/04/05 06:03:38;;;;;;;4.17;2.20;;;;;;;20.13;54.29;97505.34;5008845;28;20284;-28
2024/04/05 06:06:06;;;;;;;4.43;2.13;;;;;;;20.12;54.21;97505.25;5008339;28;20221;-30
2024/04/05 06:08:32;;;;;;;2.10;1.90;;;;;;;20.08;54.25;97511.97;5015328;28;20202;-29
2024/04/05 06:10:58;;;;;;;2.40;1.60;;;;;;;20.04;54.19;97506.69;5009501;28;20639;-26
2024/04/05 06:13:23;;;;;;;2.30;1.83;;;;;;;20.02;54.18;97517.69;5008817;28;20206;-26
2024/04/05 06:15:57;;;;;;;2.47;1.73;;;;;;;20.02;54.36;97513.41;5019669;28;20203;-27
2024/04/05 06:18:27;;;;;;;3.50;2.20;;;;;;;20.02;54.16;97513.41;5011519;28;20213;-35
2024/04/05 06:20:56;;;;;;;4.30;1.97;;;;;;;20.01;54.34;97515.09;5005486;28;20215;-30
2024/04/05 06:23:23;;;;;;;1.83;1.50;;;;;;;20.02;54.23;97509.19;5003949;28;20210;-26
2024/04/05 06:25:56;;;;;;;3.30;1.90;;;;;;;20.02;54.12;97507.50;5006631;28;20221;-30
2024/04/05 06:28:22;;;;;;;3.37;1.93;;;;;;;20.03;54.08;97510.91;5002344;28;20224;-27
2024/04/05 06:30:48;;;;;;;3.17;2.23;;;;;;;20.06;54.13;97520.34;5004928;28;20239;-28
2024/04/05 06:33:13;;;;;;;1.90;1.80;;;;;;;20.05;53.98;97524.59;5003428;28;20238;-28
2024/04/05 06:35:40;;;;;;;2.20;1.60;;;;;;;20.06;54.06;97515.25;5009388;28;20759;-29
2024/04/05 06:38:05;;;;;;;2.33;1.70;;;;;;;20.07;53.88;97519.56;5007089;28;20214;-31
2024/04/05 06:40:31;;;;;;;3.00;1.73;;;;;;;20.07;54.17;97528.06;5000515;28;20226;-26
2024/04/05 06:42:57;;;;;;;4.50;2.00;;;;;;;20.04;54.05;97525.41;5002716;28;20269;-28
2024/04/05 06:45:22;;;;;;;1.90;1.73;;;;;;;20.02;54.13;97528.72;5003430;28;20269;-33
2024/04/05 06:47:49;;;;;;;3.20;1.50;;;;;;;20.00;54.18;97521.03;5010266;28;20210;-27
2024/04/05 06:50:14;;;;;;;3.77;1.70;;;;;;;19.97;54.25;97510.72;5007461;28;20767;-32
2024/04/05 06:52:40;;;;;;;2.57;1.87;;;;;;;19.98;54.08;97513.31;5010825;28;20214;-29
2024/04/05 06:55:06;;;;;;;2.77;1.50;;;;;;;19.97;54.27;97510.72;5009354;28;20285;-29
2024/04/05 06:57:31;;;;;;;2.23;1.80;;;;;;;20.01;54.00;97507.44;5010027;28;20210;-27
2024/04/05 06:59:57;;;;;;;2.40;1.60;;;;;;;20.01;54.14;97517.66;5010231;28;20669;-27
2024/04/05 07:02:23;;;;;;;2.83;1.80;;;;;;;20.02;54.16;97523.63;5007681;28;20202;-29
2024/04/05 07:04:49;;;;;;;3.20;1.90;;;;;;;20.03;54.08;97528.78;5007180;28;20304;-29
2024/04/05 07:07:16;;;;;;;3.10;1.70;;;;;;;20.05;53.99;97528.84;5004892;28;20210;-30
2024/04/05 07:09:43;;;;;;;2.23;1.60;;;;;;;20.06;53.91;97535.66;5007790;28;20292;-29
2024/04/05 07:12:09;;;;;;;2.83;1.70;;;;;;;20.06;54.32;97525.47;5005990;28;20225;-29
2024/04/05 07:14:34;;;;;;;2.37;1.77;;;;;;;20.07;54.09;97529.75;5010693;28;20218;-28
2024/04/05 07:17:01;;;;;;;1.63;1.33;;;;;;;20.04;53.89;97530.50;5010923;28;20297;-27
2024/04/05 07:19:26;;;;;;;1.67;1.53;;;;;;;20.01;54.07;97532.09;5009209;28;20221;-29
2024/04/05 07:21:52;;;;;;;1.90;1.50;;;;;;;19.99;53.95;97529.50;5008499;28;20226;-35
2024/04/05 07:24:18;;;;;;;1.97;1.70;;;;;;;19.98;54.46;97523.50;5008845;28;20206;-28
2024/04/05 07:26:44;;;;;;;1.70;1.60;;;;;;;19.98;54.11;97515.88;5008406;28;20229;-34
2024/04/05 07:29:10;;;;;;;3.03;1.80;;;;;;;19.99;54.07;97525.25;5010132;28;20603;-27
2024/04/05 07:31:36;;;;;;;2.03;1.60;;;;;;;20.01;54.10;97527.84;5010651;28;20225;-27
2024/04/05 07:34:03;;;;;;;1.97;1.60;;;;;;;20.02;53.96;97530.44;5004792;28;20684;-29
2024/04/05 07:36:28;;;;;;;1.43;1.33;;;;;;;20.02;54.03;97518.53;5009598;28;20210;-27
2024/04/05 07:38:54;;;;;;;1.60;1.50;;;;;;;20.04;53.95;97527.97;5010973;28;20317;-31
2024/04/05 07:41:20;;;;;;;1.60;1.50;;;;;;;20.02;53.91;97525.34;5010465;28;20234;-32
2024/04/05 07:43:46;;;;;;;1.90;1.50;;;;;;;20.06;53.97;97536.53;4992319;28;20307;-29
2024/04/05 07:46:11;;;;;;;3.83;1.70;;;;;;;20.07;53.97;97528.06;5010214;28;20262;-28
2024/04/05 07:48:37;;;;;;;1.40;1.30;;;;;;;20.08;53.92;97519.63;5009013;28;20206;-39
2024/04/05 07:51:04;;;;;;;1.90;1.50;;;;;;;20.04;53.89;97520.31;5010497;28;20238;-32
2024/04/05 07:53:29;;;;;;;1.87;1.60;;;;;;;20.00;53.91;97518.47;4985937;28;20233;-30
2024/04/05 07:55:55;;;;;;;1.37;1.27;;;;;;;19.99;54.00;97520.13;5008013;28;20230;-27
2024/04/05 07:58:21;;;;;;;1.70;1.60;;;;;;;20.00;53.94;97515.91;5009702;28;20265;-27
2024/04/05 08:00:47;;;;;;;1.73;1.63;;;;;;;19.99;54.07;97515.03;5009696;28;20692;-31
2024/04/05 08:03:13;;;;;;;2.10;1.53;;;;;;;20.02;53.91;97515.97;5007719;28;20226;-28
2024/04/05 08:05:38;;;;;;;1.63;1.53;;;;;;;20.02;53.97;97508.31;5007722;28;20227;-28
2024/04/05 08:08:04;;;;;;;3.47;1.77;;;;;;;20.03;54.05;97508.38;5011929;28;20592;-28
2024/04/05 08:10:33;;;;;;;1.60;1.50;;;;;;;20.05;53.76;97516.06;5011830;28;20237;-32
2024/04/05 08:12:58;;;;;;;1.57;1.47;;;;;;;20.05;53.80;97514.41;5005881;28;20673;-27
2024/04/05 08:15:25;;;;;;;2.10;1.30;;;;;;;20.06;53.94;97517.81;5013201;28;20198;-29
2024/04/05 08:17:51;;;;;;;1.50;1.40;;;;;;;20.05;53.98;97518.63;5015571;28;20657;-28
2024/04/05 08:20:18;;;;;;;2.60;1.77;;;;;;;20.07;53.68;97517.84;5013747;28;20261;-28
2024/04/05 08:22:43;;;;;;;2.50;1.63;;;;;;;20.09;53.96;97523.88;5012977;28;20812;-28
2024/04/05 08:25:09;;;;;;;1.40;1.30;;;;;;;20.04;53.80;97525.41;5012838;28;20292;-30
2024/04/05 08:27:35;;;;;;;1.43;1.33;;;;;;;20.02;53.98;97522.81;5013125;28;20213;-28
2024/04/05 08:30:00;;;;;;;1.53;1.43;;;;;;;20.01;54.19;97527.84;5008261;28;20214;-27
2024/04/05 08:32:26;;;;;;;1.60;1.50;;;;;;;20.01;54.08;97514.25;5012971;28;20214;-28
2024/04/05 08:34:52;;;;;;;1.40;1.30;;;;;;;20.01;53.83;97514.25;5001168;28;20674;-29
2024/04/05 08:37:18;;;;;;;2.40;1.47;;;;;;;20.02;53.99;97521.94;5006021;28;20253;-26
2024/04/05 08:39:44;;;;;;;1.90;1.50;;;;;;;20.03;53.80;97521.13;5011015;28;20644;-29
2024/04/05 08:42:16;;;;;;;2.00;1.47;;;;;;;20.05;53.90;97518.63;5007365;28;20217;-27
2024/04/05 08:44:43;;;;;;;1.57;1.47;;;;;;;20.05;53.94;97516.97;5009329;28;20268;-26
2024/04/05 08:47:09;;;;;;;1.50;1.40;;;;;;;20.06;53.74;97512.69;5012325;28;20203;-27
2024/04/05 08:49:35;;;;;;;1.60;1.30;;;;;;;20.06;53.74;97497.41;5009308;28;20864;-34
2024/04/05 08:52:00;;;;;;;1.60;1.50;;;;;;;20.06;53.77;97505.94;5000717;28;20234;-27
2024/04/05 08:54:30;;;;;;;1.60;1.50;;;;;;;20.07;53.59;97509.34;5008596;28;20232;-30
2024/04/05 08:56:56;;;;;;;2.10;1.50;;;;;;;20.06;53.71;97518.69;5011982;28;20210;-31
2024/04/05 08:59:22;;;;;;;1.80;1.47;;;;;;;20.01;53.98;97515.09;5008984;28;20297;-29
2024/04/05 09:01:51;;;;;;;1.40;1.30;;;;;;;20.02;53.86;97521.94;5006611;28;20634;-31
2024/04/05 09:04:17;;;;;;;1.33;1.27;;;;;;;20.02;53.87;97521.06;4994751;28;20627;-26
2024/04/05 09:06:43;;;;;;;1.57;1.30;;;;;;;20.02;53.86;97513.41;5011718;28;20226;-27
2024/04/05 09:09:09;;;;;;;1.70;1.60;;;;;;;20.02;53.99;97513.41;5009795;28;20213;-29
2024/04/05 09:11:35;;;;;;;1.30;1.20;;;;;;;20.00;53.99;97513.38;5000715;28;20231;-30
2024/04/05 09:14:03;;;;;;;2.17;1.80;;;;;;;20.02;53.81;97520.25;4998173;28;20630;-27
2024/04/05 09:16:31;;;;;;;1.50;1.40;;;;;;;20.04;54.49;97515.19;5006206;28;20890;-30
2024/04/05 09:19:09;;;;;;;1.20;1.10;;;;;;;20.05;53.75;97514.41;5005130;28;20211;-30
2024/04/05 09:21:35;;;;;;;1.50;1.40;;;;;;;20.06;53.89;97515.25;5004671;28;20613;-27
2024/04/05 09:24:02;;;;;;;1.40;1.30;;;;;;;20.07;53.76;97517.84;4989167;28;20248;-27
2024/04/05 09:26:27;;;;;;;1.60;1.50;;;;;;;20.11;53.69;97526.50;5004459;28;20229;-27
2024/04/05 09:29:03;;;;;;;1.50;1.40;;;;;;;20.11;53.84;97513.75;4996957;28;20206;-31
2024/04/05 09:31:29;;;;;;;1.57;1.33;;;;;;;20.06;53.83;97503.38;4994958;28;20584;-28
2024/04/05 09:34:09;;;;;;;1.30;1.13;;;;;;;20.05;53.75;97495.66;5008309;28;20206;-28
2024/04/05 09:36:36;;;;;;;1.37;1.27;;;;;;;20.04;53.90;97496.50;4999497;28;20571;-31
2024/04/05 09:39:05;;;;;;;1.30;1.20;;;;;;;20.02;54.00;97497.28;5001500;28;20685;-32
2024/04/05 09:41:32;;;;;;;1.53;1.43;;;;;;;20.03;54.04;97490.50;5002728;28;20245;-31
2024/04/05 09:43:58;;;;;;;1.57;1.47;;;;;;;20.03;54.01;97485.41;5001734;28;20203;-35
2024/04/05 09:46:24;;;;;;;1.70;1.60;;;;;;;20.02;53.96;97486.25;5005194;28;20226;-26
2024/04/05 09:48:50;;;;;;;1.40;1.30;;;;;;;20.06;53.85;97487.19;4977480;28;20225;-34
2024/04/05 09:51:16;;;;;;;1.30;1.20;;;;;;;20.04;53.82;97481.19;5001348;28;20572;-28
2024/04/05 09:53:45;;;;;;;1.40;1.30;;;;;;;20.07;53.93;97487.25;4977041;28;20260;-32
2024/04/05 09:56:12;;;;;;;1.50;1.40;;;;;;;20.09;53.73;97482.19;5002528;28;20206;-34
2024/04/05 09:58:39;;;;;;;1.77;1.40;;;;;;;20.10;53.83;97479.69;4994543;28;20673;-30
2024/04/05 10:01:08;;;;;;;1.40;1.30;;;;;;;20.07;53.64;97479.59;4972574;28;20707;-29
2024/04/05 10:03:34;;;;;;;1.40;1.30;;;;;;;20.10;53.87;97474.59;4978640;28;20611;-26
2024/04/05 10:06:11;;;;;;;1.53;1.40;;;;;;;20.06;53.94;97488.06;4992753;28;20232;-29
2024/04/05 10:08:39;;;;;;;1.50;1.40;;;;;;;20.01;54.05;97487.03;5003428;28;20581;-26
2024/04/05 10:11:14;;;;;;;1.33;1.10;;;;;;;20.02;53.84;97493.00;5006075;28;20236;-27
2024/04/05 10:13:40;;;;;;;1.40;1.30;;;;;;;20.02;53.89;97482.81;5002230;28;20206;-27
2024/04/05 10:16:06;;;;;;;1.40;1.30;;;;;;;20.02;53.91;97482.81;5005881;28;20218;-30
2024/04/05 10:18:39;;;;;;;1.50;1.40;;;;;;;20.03;53.90;97482.88;4999330;28;20784;-31
2024/04/05 10:21:08;;;;;;;1.63;1.33;;;;;;;20.05;53.91;97485.47;5007836;28;20222;-31
2024/04/05 10:23:35;;;;;;;1.60;1.40;;;;;;;20.05;53.71;97481.25;5005588;28;20222;-26
2024/04/05 10:26:02;;;;;;;1.53;1.27;;;;;;;20.07;53.87;97478.75;5002473;28;20717;-27
2024/04/05 10:28:30;;;;;;;1.57;1.43;;;;;;;20.07;53.80;97482.13;5009064;28;20228;-28
2024/04/05 10:30:59;;;;;;;1.33;1.20;;;;;;;20.08;53.85;97475.38;4990773;28;20592;-29
2024/04/05 10:33:24;;;;;;;1.23;1.20;;;;;;;20.08;53.76;97475.38;4993108;28;20524;-27
2024/04/05 10:35:50;;;;;;;1.27;1.17;;;;;;;20.10;53.85;97486.50;4997331;28;20264;-28
2024/04/05 10:38:16;;;;;;;1.67;1.30;;;;;;;20.08;53.75;97490.66;4977131;28;20225;-30
2024/04/05 10:40:56;;;;;;;1.30;1.20;;;;;;;20.05;53.96;97494.00;5009522;28;20237;-30
2024/04/05 10:43:22;;;;;;;1.40;1.30;;;;;;;20.02;53.73;97484.53;4986173;28;20594;-28
2024/04/05 10:45:51;;;;;;;2.20;1.40;;;;;;;20.02;54.00;97475.16;5009010;28;20218;-35
2024/04/05 10:48:16;;;;;;;1.40;1.30;;;;;;;20.02;53.96;97484.53;5002475;28;20210;-27
2024/04/05 10:50:42;;;;;;;1.90;1.37;;;;;;;20.02;53.73;97476.88;4993080;28;20233;-27
2024/04/05 10:53:07;;;;;;;1.57;1.47;;;;;;;20.03;53.85;97475.22;5007429;28;20216;-32
2024/04/05 10:55:33;;;;;;;1.40;1.27;;;;;;;19.98;53.97;97458.03;5010511;28;20430;-28
2024/04/05 10:58:02;;;;;;;1.33;1.23;;;;;;;20.04;53.72;97468.44;5008031;28;20277;-28
2024/04/05 11:00:30;;;;;;;1.10;1.10;;;;;;;20.05;53.41;97468.47;5006260;28;20257;-31
2024/04/05 11:02:56;;;;;;;1.07;1.07;;;;;;;20.06;53.85;97465.09;5007400;28;20213;-32
2024/04/05 11:05:21;;;;;;;1.20;1.10;;;;;;;20.07;53.75;97463.44;4977892;28;20234;-27
2024/04/05 11:07:59;;;;;;;1.30;1.20;;;;;;;20.08;53.69;97460.06;5009559;28;20735;-28
2024/04/05 11:10:31;;;;;;;1.20;1.10;;;;;;;20.08;53.82;97447.31;4996346;28;20233;-28
2024/04/05 11:12:57;;;;;;;1.30;1.20;;;;;;;20.05;53.83;97435.31;5004479;28;20227;-28
2024/04/05 11:15:23;;;;;;;1.17;1.17;;;;;;;20.02;53.89;97438.63;5005366;28;20209;-31
2024/04/05 11:18:03;;;;;;;1.07;1.07;;;;;;;20.00;53.79;97429.19;5004960;28;20264;-30
2024/04/05 11:20:32;;;;;;;1.40;1.30;;;;;;;20.01;53.70;97433.47;5005736;28;20736;-25
2024/04/05 11:23:01;;;;;;;1.60;1.50;;;;;;;20.01;53.83;97423.25;5000982;28;20230;-27
2024/04/05 11:25:26;;;;;;;1.50;1.40;;;;;;;20.02;53.93;97414.81;5002382;28;20222;-27
2024/04/05 11:27:52;;;;;;;1.53;1.40;;;;;;;20.02;53.92;97410.56;5009304;28;20252;-32
2024/04/05 11:30:17;;;;;;;1.47;1.33;;;;;;;20.04;53.81;97413.16;5006731;28;20240;-33